createdAt,value
2019-05-17T00:00:16.809Z,16.00
2019-05-17T00:01:16.719Z,16.00
2019-05-17T00:02:17.463Z,20.00
2019-05-17T00:03:17.019Z,24.00
2019-05-17T00:04:16.617Z,28.00
2019-05-17T00:05:17.808Z,36.00
2019-05-17T00:06:16.865Z,36.00
2019-05-17T00:07:16.707Z,44.00
2019-05-17T00:08:20.437Z,48.00
2019-05-17T00:09:17.709Z,52.00
2019-05-17T00:10:17.340Z,60.00
2019-05-17T00:11:16.781Z,64.00
2019-05-17T00:12:16.642Z,68.00
2019-05-17T00:13:17.449Z,72.00
2019-05-17T00:14:16.739Z,80.00
2019-05-17T00:15:16.968Z,88.00
2019-05-17T00:16:17.452Z,92.00
2019-05-17T00:17:17.370Z,100.00
2019-05-17T00:18:17.097Z,108.00
2019-05-17T00:19:16.883Z,116.00
2019-05-17T00:20:17.448Z,124.00
2019-05-17T00:21:16.942Z,132.00
2019-05-17T00:22:16.693Z,140.00
2019-05-17T00:23:17.402Z,156.00
2019-05-17T00:24:18.094Z,168.00
2019-05-17T00:25:16.624Z,192.00
2019-05-17T00:26:16.395Z,216.00
2019-05-17T00:27:17.215Z,236.00
2019-05-17T00:28:16.441Z,256.00
2019-05-17T00:29:17.313Z,276.00
2019-05-17T00:30:17.609Z,288.00
2019-05-17T00:31:17.200Z,304.00
2019-05-17T00:32:17.127Z,312.00
2019-05-17T00:33:16.951Z,316.00
2019-05-17T00:34:16.814Z,320.00
2019-05-17T00:35:17.910Z,328.00
2019-05-17T00:36:17.879Z,336.00
2019-05-17T00:37:17.407Z,352.00
2019-05-17T00:38:16.893Z,368.00
2019-05-17T00:39:16.639Z,388.00
2019-05-17T00:40:16.632Z,412.00
2019-05-17T00:41:17.611Z,440.00
2019-05-17T00:42:16.991Z,468.00
2019-05-17T00:43:16.971Z,496.00
2019-05-17T00:44:16.805Z,520.00
2019-05-17T00:45:17.626Z,536.00
2019-05-17T00:46:17.231Z,544.00
2019-05-17T00:47:17.103Z,544.00
2019-05-17T00:48:17.138Z,536.00
2019-05-17T00:49:17.148Z,536.00
2019-05-17T00:50:16.970Z,536.00
2019-05-17T00:51:16.739Z,540.00
2019-05-17T00:52:16.697Z,548.00
2019-05-17T00:53:16.393Z,568.00
2019-05-17T00:54:17.410Z,596.00
2019-05-17T00:55:17.524Z,648.00
2019-05-17T00:56:17.087Z,736.00
2019-05-17T00:57:16.630Z,824.00
2019-05-17T00:58:17.193Z,888.00
2019-05-17T00:59:17.107Z,944.00
2019-05-17T01:00:17.063Z,1020.00
2019-05-17T01:01:16.484Z,1132.00
2019-05-17T01:02:16.308Z,1264.00
2019-05-17T01:03:16.240Z,1416.00
2019-05-17T01:04:17.351Z,1596.00
2019-05-17T01:05:17.087Z,1780.00
2019-05-17T01:06:16.919Z,1896.00
2019-05-17T01:07:17.543Z,1992.00
2019-05-17T01:08:17.495Z,2080.00
2019-05-17T01:09:17.016Z,2152.00
2019-05-17T01:10:16.636Z,2192.00
2019-05-17T01:11:16.549Z,2196.00
2019-05-17T01:12:16.471Z,2176.00
2019-05-17T01:13:17.296Z,2120.00
2019-05-17T01:14:17.352Z,2084.00
2019-05-17T01:15:16.733Z,2084.00
2019-05-17T01:16:16.629Z,2092.00
2019-05-17T01:17:16.542Z,2104.00
2019-05-17T01:18:16.265Z,2096.00
2019-05-17T01:19:16.362Z,2024.00
2019-05-17T01:20:17.374Z,1924.00
2019-05-17T01:21:16.867Z,1804.00
2019-05-17T01:22:16.904Z,1696.00
2019-05-17T01:23:16.640Z,1616.00
2019-05-17T01:24:17.313Z,1536.00
2019-05-17T01:25:17.079Z,1476.00
2019-05-17T01:26:15.281Z,1412.00
2019-05-17T01:27:17.252Z,1364.00
2019-05-17T01:28:16.422Z,1308.00
2019-05-17T01:29:17.318Z,1252.00
2019-05-17T01:30:17.276Z,1204.00
2019-05-17T01:31:17.215Z,1160.00
2019-05-17T01:32:17.180Z,1132.00
2019-05-17T01:33:17.183Z,1092.00
2019-05-17T01:34:16.616Z,1048.00
2019-05-17T01:35:16.832Z,1004.00
2019-05-17T01:36:17.265Z,976.00
2019-05-17T01:37:17.228Z,976.00
2019-05-17T01:38:17.538Z,988.00
2019-05-17T01:39:20.606Z,996.00
2019-05-17T01:40:39.949Z,1012.00
2019-05-17T01:41:39.942Z,1044.00
2019-05-17T01:42:39.924Z,1088.00
2019-05-17T01:43:39.913Z,1140.00
2019-05-17T01:44:39.954Z,1204.00
2019-05-17T01:45:39.900Z,1280.00
2019-05-17T01:46:39.883Z,1360.00
2019-05-17T01:47:39.870Z,1440.00
2019-05-17T01:48:39.866Z,1508.00
2019-05-17T01:49:39.850Z,1552.00
2019-05-17T01:50:39.942Z,1600.00
2019-05-17T01:51:39.828Z,1656.00
2019-05-17T01:52:39.819Z,1716.00
2019-05-17T01:53:39.807Z,1788.00
2019-05-17T01:54:39.799Z,1852.00
2019-05-17T01:55:39.789Z,1916.00
2019-05-17T01:56:39.824Z,1976.00
2019-05-17T01:57:39.768Z,2016.00
2019-05-17T01:58:39.760Z,2300.00
2019-05-17T01:59:39.750Z,2184.00
2019-05-17T02:00:39.736Z,2124.00
2019-05-17T02:01:39.725Z,2128.00
2019-05-17T02:02:39.760Z,2184.00
2019-05-17T02:03:39.701Z,2256.00
2019-05-17T02:04:39.687Z,2336.00
2019-05-17T02:05:39.680Z,2408.00
2019-05-17T02:06:39.688Z,2460.00
2019-05-17T02:07:39.910Z,2500.00
2019-05-17T02:08:39.648Z,2548.00
2019-05-17T02:09:41.833Z,2616.00
2019-05-17T02:10:39.624Z,2724.00
2019-05-17T02:11:39.614Z,2852.00
2019-05-17T02:12:39.610Z,3008.00
2019-05-17T02:13:39.693Z,3172.00
2019-05-17T02:14:39.583Z,3348.00
2019-05-17T02:15:39.570Z,3536.00
2019-05-17T02:16:39.560Z,3732.00
2019-05-17T02:17:39.551Z,3952.00
2019-05-17T02:18:39.542Z,4248.00
2019-05-17T02:19:39.581Z,4660.00
2019-05-17T02:20:39.529Z,5156.00
2019-05-17T02:21:39.506Z,5692.00
2019-05-17T02:22:39.499Z,6280.00
2019-05-17T02:23:39.484Z,6992.00
2019-05-17T02:24:39.473Z,7988.00
2019-05-17T02:25:39.616Z,10032.00
2019-05-17T02:26:39.452Z,14536.00
2019-05-17T02:27:41.909Z,17780.00
2019-05-17T02:28:41.333Z,17244.00
2019-05-17T02:29:39.420Z,21248.00
2019-05-17T02:30:39.409Z,24032.00
2019-05-17T02:31:39.453Z,22528.00
2019-05-17T02:32:39.388Z,24736.00
2019-05-17T02:33:42.784Z,29152.00
2019-05-17T02:34:42.786Z,32384.00
2019-05-17T02:35:42.687Z,30272.00
2019-05-17T02:36:42.841Z,23072.00
2019-05-17T02:37:42.930Z,24800.00
2019-05-17T02:38:39.325Z,22560.00
2019-05-17T02:39:56.606Z,26880.00
2019-05-17T02:41:04.132Z,30592.00
2019-05-17T02:42:04.105Z,31712.00
2019-05-17T02:43:04.254Z,25056.00
2019-05-17T02:44:04.089Z,23008.00
2019-05-17T02:45:04.122Z,24160.00
2019-05-17T02:46:04.337Z,19296.00
2019-05-17T02:47:04.051Z,24384.00
2019-05-17T02:48:04.311Z,26688.00
2019-05-17T02:49:04.157Z,35584.00
2019-05-17T02:50:05.477Z,32768.00
2019-05-17T02:51:04.195Z,19356.00
2019-05-17T02:52:04.004Z,15440.00
2019-05-17T02:53:04.814Z,17448.00
2019-05-17T02:54:04.368Z,21568.00
2019-05-17T02:55:04.337Z,35200.00
2019-05-17T02:56:03.956Z,31776.00
2019-05-17T02:57:03.954Z,20160.00
2019-05-17T02:58:03.987Z,29696.00
2019-05-17T02:59:04.090Z,34336.00
2019-05-17T03:00:04.681Z,37088.00
2019-05-17T03:01:04.200Z,37440.00
2019-05-17T03:02:03.922Z,36864.00
2019-05-17T03:03:04.122Z,34560.00
2019-05-17T03:04:04.198Z,29728.00
2019-05-17T03:05:04.379Z,22784.00
2019-05-17T03:06:03.897Z,22048.00
2019-05-17T03:07:04.183Z,21696.00
2019-05-17T03:08:04.577Z,26368.00
2019-05-17T03:09:03.822Z,34368.00
2019-05-17T03:10:21.649Z,27456.00
2019-05-17T03:11:04.900Z,20128.00
2019-05-17T03:12:04.048Z,18364.00
2019-05-17T03:13:04.445Z,18612.00
2019-05-17T03:14:04.258Z,16772.00
2019-05-17T03:15:04.409Z,14736.00
2019-05-17T03:16:04.068Z,13872.00
2019-05-17T03:17:03.768Z,16164.00
2019-05-17T03:18:04.182Z,12504.00
2019-05-17T03:19:04.330Z,12228.00
2019-05-17T03:20:04.337Z,12216.00
2019-05-17T03:21:04.346Z,11980.00
2019-05-17T03:22:07.479Z,11460.00
2019-05-17T03:23:04.283Z,10780.00
2019-05-17T03:24:03.743Z,10276.00
2019-05-17T03:25:03.846Z,10124.00
2019-05-17T03:26:04.050Z,10200.00
2019-05-17T03:27:03.660Z,10424.00
2019-05-17T03:28:03.687Z,17684.00
2019-05-17T03:29:03.671Z,24992.00
2019-05-17T03:30:04.350Z,17544.00
2019-05-17T03:31:08.035Z,34752.00
2019-05-17T03:32:08.343Z,32960.00
2019-05-17T03:33:06.962Z,19392.00
2019-05-17T03:34:06.479Z,27104.00
2019-05-17T03:35:06.774Z,21536.00
2019-05-17T03:36:06.351Z,29312.00
2019-05-17T03:37:06.199Z,35264.00
2019-05-17T03:38:04.088Z,36736.00
2019-05-17T03:39:03.512Z,35008.00
2019-05-17T03:40:21.662Z,36352.00
2019-05-17T03:41:29.412Z,37920.00
2019-05-17T03:42:28.395Z,37312.00
2019-05-17T03:43:28.292Z,37248.00
2019-05-17T03:44:28.277Z,38976.00
2019-05-17T03:45:28.265Z,39136.00
2019-05-17T03:46:28.253Z,32896.00
2019-05-17T03:47:28.246Z,30528.00
2019-05-17T03:48:28.282Z,26720.00
2019-05-17T03:49:28.223Z,24096.00
2019-05-17T03:50:28.213Z,21344.00
2019-05-17T03:51:28.209Z,18564.00
2019-05-17T03:52:28.195Z,17184.00
2019-05-17T03:53:28.183Z,15720.00
2019-05-17T03:54:28.226Z,14648.00
2019-05-17T03:55:28.166Z,15720.00
2019-05-17T03:56:28.154Z,31616.00
2019-05-17T03:57:28.143Z,16648.00
2019-05-17T03:58:28.134Z,14928.00
2019-05-17T03:59:28.125Z,17360.00
2019-05-17T04:00:28.215Z,26912.00
2019-05-17T04:01:28.107Z,16400.00
2019-05-17T04:02:28.094Z,20736.00
2019-05-17T04:03:31.267Z,15464.00
2019-05-17T04:04:53.256Z,17436.00
2019-05-17T04:05:53.189Z,21824.00
2019-05-17T04:06:52.869Z,15084.00
2019-05-17T04:07:53.595Z,14628.00
2019-05-17T04:08:52.910Z,28992.00
2019-05-17T04:09:53.398Z,30848.00
2019-05-17T04:10:53.177Z,34144.00
2019-05-17T04:11:53.582Z,33376.00
2019-05-17T04:12:53.261Z,33152.00
2019-05-17T04:13:53.750Z,18864.00
2019-05-17T04:14:53.570Z,14816.00
2019-05-17T04:15:53.241Z,13176.00
2019-05-17T04:16:53.712Z,12360.00
2019-05-17T04:17:52.949Z,11740.00
2019-05-17T04:18:53.455Z,11240.00
2019-05-17T04:19:53.490Z,10764.00
2019-05-17T04:20:52.994Z,10316.00
2019-05-17T04:21:53.701Z,9940.00
2019-05-17T04:22:52.865Z,9628.00
2019-05-17T04:23:53.799Z,9340.00
2019-05-17T04:24:52.703Z,9184.00
2019-05-17T04:25:53.367Z,9376.00
2019-05-17T04:26:52.721Z,9616.00
2019-05-17T04:27:53.603Z,9848.00
2019-05-17T04:28:53.436Z,10020.00
2019-05-17T04:29:53.434Z,10188.00
2019-05-17T04:30:52.947Z,10500.00
2019-05-17T04:31:54.495Z,11672.00
2019-05-17T04:32:52.870Z,12100.00
2019-05-17T04:33:53.627Z,13204.00
2019-05-17T04:34:52.732Z,16024.00
2019-05-17T04:35:54.061Z,16976.00
2019-05-17T04:36:52.562Z,15288.00
2019-05-17T04:37:53.227Z,14796.00
2019-05-17T04:38:52.785Z,15440.00
2019-05-17T04:39:52.726Z,14372.00
2019-05-17T04:40:53.801Z,13972.00
2019-05-17T04:41:54.886Z,14824.00
2019-05-17T04:42:52.866Z,17084.00
2019-05-17T04:43:53.173Z,16664.00
2019-05-17T04:44:52.935Z,17020.00
2019-05-17T04:45:53.606Z,16016.00
2019-05-17T04:46:53.580Z,16484.00
2019-05-17T04:47:52.985Z,14832.00
2019-05-17T04:48:53.598Z,14492.00
2019-05-17T04:49:53.557Z,16012.00
2019-05-17T04:50:53.627Z,15368.00
2019-05-17T04:51:52.669Z,15984.00
2019-05-17T04:52:53.557Z,16436.00
2019-05-17T04:53:53.089Z,16476.00
2019-05-17T04:54:53.698Z,16480.00
2019-05-17T04:55:54.016Z,15696.00
2019-05-17T04:56:53.269Z,14920.00
2019-05-17T04:57:53.167Z,14084.00
2019-05-17T04:58:54.368Z,13248.00
2019-05-17T04:59:52.471Z,12880.00
2019-05-17T05:00:53.675Z,12620.00
2019-05-17T05:01:53.665Z,12444.00
2019-05-17T05:02:52.871Z,12916.00
2019-05-17T05:03:52.578Z,12332.00
2019-05-17T05:04:53.346Z,12304.00
2019-05-17T05:05:53.503Z,12388.00
2019-05-17T05:06:52.535Z,13000.00
2019-05-17T05:07:53.567Z,13052.00
2019-05-17T05:08:52.862Z,12980.00
2019-05-17T05:09:52.476Z,13460.00
2019-05-17T05:10:53.527Z,13068.00
2019-05-17T05:12:00.758Z,12796.00
2019-05-17T05:13:17.006Z,12688.00
2019-05-17T05:14:16.995Z,13276.00
2019-05-17T05:15:16.987Z,13916.00
2019-05-17T05:16:16.979Z,14584.00
2019-05-17T05:17:17.016Z,14520.00
2019-05-17T05:18:16.951Z,14108.00
2019-05-17T05:19:16.940Z,14016.00
2019-05-17T05:20:16.930Z,14272.00
2019-05-17T05:21:17.121Z,14076.00
2019-05-17T05:22:17.675Z,13932.00
2019-05-17T05:23:16.997Z,13660.00
2019-05-17T05:24:16.885Z,13344.00
2019-05-17T05:25:16.878Z,12996.00
2019-05-17T05:26:16.866Z,12632.00
2019-05-17T05:27:16.855Z,12312.00
2019-05-17T05:28:16.844Z,12036.00
2019-05-17T05:29:16.882Z,11760.00
2019-05-17T05:30:16.825Z,11624.00
2019-05-17T05:31:16.817Z,11480.00
2019-05-17T05:32:16.805Z,11124.00
2019-05-17T05:33:16.793Z,10740.00
2019-05-17T05:34:16.784Z,10892.00
2019-05-17T05:35:16.874Z,10956.00
2019-05-17T05:36:16.762Z,10960.00
2019-05-17T05:37:16.755Z,10516.00
2019-05-17T05:38:16.741Z,9888.00
2019-05-17T05:39:16.731Z,8952.00
2019-05-17T05:40:16.719Z,8508.00
2019-05-17T05:41:16.762Z,8188.00
2019-05-17T05:42:16.701Z,8080.00
2019-05-17T05:43:16.691Z,7828.00
2019-05-17T05:44:16.681Z,7376.00
2019-05-17T05:45:16.674Z,7056.00
2019-05-17T05:46:16.671Z,6816.00
2019-05-17T05:47:16.750Z,6568.00
2019-05-17T05:48:16.636Z,6300.00
2019-05-17T05:49:16.629Z,6052.00
2019-05-17T05:50:17.718Z,5912.00
2019-05-17T05:51:16.606Z,5848.00
2019-05-17T05:52:16.595Z,5732.00
2019-05-17T05:53:16.687Z,5584.00
2019-05-17T05:54:16.576Z,5452.00
2019-05-17T05:55:16.563Z,5356.00
2019-05-17T05:56:16.553Z,5236.00
2019-05-17T05:57:16.546Z,5120.00
2019-05-17T05:58:16.531Z,4936.00
2019-05-17T05:59:16.570Z,4752.00
2019-05-17T06:00:16.508Z,4632.00
2019-05-17T06:01:16.500Z,4600.00
2019-05-17T06:02:16.498Z,4640.00
2019-05-17T06:03:16.476Z,4720.00
2019-05-17T06:04:16.464Z,4816.00
2019-05-17T06:05:17.387Z,4924.00
2019-05-17T06:06:16.444Z,5060.00
2019-05-17T06:07:16.436Z,5240.00
2019-05-17T06:08:16.423Z,5424.00
2019-05-17T06:09:16.409Z,5608.00
2019-05-17T06:10:16.400Z,5792.00
2019-05-17T06:11:16.438Z,5932.00
2019-05-17T06:12:23.781Z,6072.00
2019-05-17T06:13:41.898Z,6240.00
2019-05-17T06:14:41.687Z,6332.00
2019-05-17T06:15:42.949Z,6416.00
2019-05-17T06:16:42.497Z,6520.00
2019-05-17T06:17:42.845Z,6644.00
2019-05-17T06:18:42.499Z,6860.00
2019-05-17T06:19:42.196Z,7224.00
2019-05-17T06:20:41.728Z,7700.00
2019-05-17T06:21:42.748Z,8444.00
2019-05-17T06:22:42.840Z,9396.00
2019-05-17T06:23:42.411Z,10300.00
2019-05-17T06:24:42.495Z,11160.00
2019-05-17T06:25:43.576Z,11684.00
2019-05-17T06:26:42.186Z,11844.00
2019-05-17T06:27:41.625Z,11756.00
2019-05-17T06:28:42.514Z,11472.00
2019-05-17T06:29:41.515Z,11368.00
2019-05-17T06:30:42.983Z,11172.00
2019-05-17T06:31:43.303Z,11092.00
2019-05-17T06:32:43.186Z,11064.00
2019-05-17T06:33:42.155Z,11140.00
2019-05-17T06:34:42.215Z,11336.00
2019-05-17T06:35:42.274Z,11452.00
2019-05-17T06:36:42.290Z,11440.00
2019-05-17T06:37:42.338Z,10960.00
2019-05-17T06:38:42.054Z,10336.00
2019-05-17T06:39:41.949Z,9880.00
2019-05-17T06:40:41.978Z,9544.00
2019-05-17T06:41:41.902Z,9412.00
2019-05-17T06:42:44.748Z,9356.00
2019-05-17T06:43:41.673Z,9288.00
2019-05-17T06:44:41.744Z,9132.00
2019-05-17T06:45:41.851Z,8952.00
2019-05-17T06:46:41.808Z,8808.00
2019-05-17T06:47:42.610Z,8672.00
2019-05-17T06:48:42.347Z,8556.00
2019-05-17T06:49:42.461Z,8424.00
2019-05-17T06:50:42.842Z,8288.00
2019-05-17T06:51:42.663Z,8160.00
2019-05-17T06:52:43.305Z,8028.00
2019-05-17T06:53:40.750Z,7856.00
2019-05-17T06:54:41.779Z,7556.00
2019-05-17T06:55:42.420Z,7128.00
2019-05-17T06:56:41.881Z,6768.00
2019-05-17T06:57:42.858Z,6440.00
2019-05-17T06:58:40.795Z,6060.00
2019-05-17T06:59:40.686Z,5668.00
2019-05-17T07:00:40.675Z,5296.00
2019-05-17T07:01:41.095Z,4968.00
2019-05-17T07:02:40.651Z,4652.00
2019-05-17T07:03:40.643Z,4292.00
2019-05-17T07:04:40.678Z,3884.00
2019-05-17T07:05:40.687Z,3460.00
2019-05-17T07:06:40.718Z,3068.00
2019-05-17T07:07:40.695Z,2740.00
2019-05-17T07:08:40.585Z,2504.00
2019-05-17T07:09:40.575Z,2364.00
2019-05-17T07:10:40.664Z,2288.00
2019-05-17T07:11:40.551Z,2264.00
2019-05-17T07:12:54.529Z,2236.00
2019-05-17T07:14:05.342Z,2152.00
2019-05-17T07:15:05.329Z,2068.00
2019-05-17T07:16:05.371Z,1956.00
2019-05-17T07:17:05.309Z,1848.00
2019-05-17T07:18:05.298Z,1748.00
2019-05-17T07:19:05.288Z,1652.00
2019-05-17T07:20:05.273Z,1584.00
2019-05-17T07:21:05.266Z,1544.00
2019-05-17T07:22:05.302Z,1520.00
2019-05-17T07:23:05.244Z,1484.00
2019-05-17T07:24:05.236Z,1452.00
2019-05-17T07:25:05.221Z,1412.00
2019-05-17T07:26:05.211Z,1356.00
2019-05-17T07:27:05.202Z,1288.00
2019-05-17T07:28:05.243Z,1188.00
2019-05-17T07:29:05.179Z,1092.00
2019-05-17T07:30:05.173Z,996.00
2019-05-17T07:31:05.159Z,920.00
2019-05-17T07:32:05.148Z,856.00
2019-05-17T07:33:05.136Z,808.00
2019-05-17T07:34:05.178Z,776.00
2019-05-17T07:35:05.116Z,760.00
2019-05-17T07:36:05.108Z,764.00
2019-05-17T07:37:05.095Z,776.00
2019-05-17T07:38:05.087Z,804.00
2019-05-17T07:39:05.078Z,844.00
2019-05-17T07:40:05.437Z,900.00
2019-05-17T07:41:05.056Z,964.00
2019-05-17T07:42:05.043Z,1032.00
2019-05-17T07:43:10.661Z,1104.00
2019-05-17T07:44:29.837Z,1208.00
2019-05-17T07:45:29.930Z,1300.00
2019-05-17T07:46:29.818Z,1412.00
2019-05-17T07:47:29.809Z,1524.00
2019-05-17T07:48:31.332Z,1612.00
2019-05-17T07:49:29.787Z,1660.00
2019-05-17T07:50:29.779Z,1696.00
2019-05-17T07:51:30.165Z,1720.00
2019-05-17T07:52:30.075Z,1712.00
2019-05-17T07:53:30.721Z,1716.00
2019-05-17T07:54:30.290Z,1816.00
2019-05-17T07:55:30.292Z,2012.00
2019-05-17T07:56:30.565Z,2228.00
2019-05-17T07:57:30.037Z,2428.00
2019-05-17T07:58:30.045Z,2588.00
2019-05-17T07:59:29.683Z,2748.00
2019-05-17T08:00:30.526Z,2848.00
2019-05-17T08:01:29.824Z,2932.00
2019-05-17T08:02:30.691Z,3048.00
2019-05-17T08:03:30.023Z,3168.00
2019-05-17T08:04:29.972Z,3300.00
2019-05-17T08:05:29.715Z,3404.00
2019-05-17T08:06:30.629Z,3456.00
2019-05-17T08:07:30.220Z,3516.00
2019-05-17T08:08:30.872Z,3580.00
2019-05-17T08:09:30.169Z,3624.00
2019-05-17T08:10:29.872Z,3628.00
2019-05-17T08:11:30.346Z,3644.00
2019-05-17T08:12:30.585Z,3664.00
2019-05-17T08:13:31.262Z,3668.00
2019-05-17T08:14:33.387Z,3692.00
2019-05-17T08:15:30.423Z,3780.00
2019-05-17T08:16:30.414Z,3952.00
2019-05-17T08:17:30.494Z,4240.00
2019-05-17T08:18:29.740Z,4652.00
2019-05-17T08:19:29.927Z,5264.00
2019-05-17T08:20:29.953Z,6016.00
2019-05-17T08:21:30.454Z,6744.00
2019-05-17T08:22:29.513Z,7348.00
2019-05-17T08:23:30.396Z,7940.00
2019-05-17T08:24:30.329Z,8384.00
2019-05-17T08:25:30.463Z,8548.00
2019-05-17T08:26:29.828Z,8668.00
2019-05-17T08:27:29.841Z,8696.00
2019-05-17T08:28:31.229Z,8696.00
2019-05-17T08:29:29.813Z,8584.00
2019-05-17T08:30:30.242Z,8432.00
2019-05-17T08:31:29.610Z,8220.00
2019-05-17T08:32:31.562Z,7912.00
2019-05-17T08:33:29.852Z,7620.00
2019-05-17T08:34:29.377Z,7324.00
2019-05-17T08:35:30.415Z,7080.00
2019-05-17T08:36:29.934Z,6968.00
2019-05-17T08:37:30.259Z,6800.00
2019-05-17T08:38:30.521Z,6540.00
2019-05-17T08:39:30.238Z,6220.00
2019-05-17T08:40:30.559Z,5880.00
2019-05-17T08:41:30.897Z,5532.00
2019-05-17T08:42:30.027Z,5372.00
2019-05-17T08:43:41.822Z,5388.00
2019-05-17T08:44:54.064Z,5572.00
2019-05-17T08:45:54.052Z,5748.00
2019-05-17T08:46:54.046Z,5984.00
2019-05-17T08:47:54.032Z,6200.00
2019-05-17T08:48:54.022Z,6360.00
2019-05-17T08:49:54.110Z,6424.00
2019-05-17T08:50:54.001Z,6428.00
2019-05-17T08:51:53.990Z,6372.00
2019-05-17T08:52:53.980Z,6272.00
2019-05-17T08:53:53.969Z,6164.00
2019-05-17T08:54:53.964Z,6060.00
2019-05-17T08:55:53.997Z,6004.00
2019-05-17T08:56:53.936Z,5908.00
2019-05-17T08:57:53.925Z,5848.00
2019-05-17T08:58:53.915Z,5764.00
2019-05-17T08:59:53.912Z,5760.00
2019-05-17T09:00:53.893Z,5776.00
2019-05-17T09:01:53.935Z,5840.00
2019-05-17T09:02:53.871Z,5936.00
2019-05-17T09:03:53.858Z,6072.00
2019-05-17T09:04:53.853Z,6100.00
2019-05-17T09:05:53.840Z,6052.00
2019-05-17T09:06:53.829Z,5980.00
2019-05-17T09:07:53.918Z,5908.00
2019-05-17T09:08:53.807Z,5788.00
2019-05-17T09:09:53.796Z,5652.00
2019-05-17T09:10:53.786Z,5596.00
2019-05-17T09:11:53.774Z,5648.00
2019-05-17T09:12:53.763Z,5732.00
2019-05-17T09:13:58.338Z,5808.00
2019-05-17T09:15:20.410Z,5952.00
2019-05-17T09:16:19.603Z,6044.00
2019-05-17T09:17:19.363Z,6108.00
2019-05-17T09:18:20.643Z,6048.00
2019-05-17T09:19:19.434Z,5940.00
2019-05-17T09:20:20.500Z,5800.00
2019-05-17T09:21:21.686Z,5684.00
2019-05-17T09:22:19.849Z,5624.00
2019-05-17T09:23:19.732Z,5632.00
2019-05-17T09:24:19.454Z,5728.00
2019-05-17T09:25:19.806Z,5848.00
2019-05-17T09:26:20.004Z,5976.00
2019-05-17T09:27:19.754Z,6128.00
2019-05-17T09:28:20.333Z,6220.00
2019-05-17T09:29:20.116Z,6232.00
2019-05-17T09:30:20.321Z,6252.00
2019-05-17T09:31:20.391Z,6276.00
2019-05-17T09:32:20.212Z,6264.00
2019-05-17T09:33:19.221Z,6208.00
2019-05-17T09:34:20.250Z,6148.00
2019-05-17T09:35:20.683Z,6100.00
2019-05-17T09:36:20.403Z,6060.00
2019-05-17T09:37:21.789Z,6024.00
2019-05-17T09:38:20.328Z,5992.00
2019-05-17T09:39:20.089Z,5952.00
2019-05-17T09:40:19.973Z,5928.00
2019-05-17T09:41:20.046Z,5912.00
2019-05-17T09:42:20.772Z,5900.00
2019-05-17T09:43:20.316Z,5956.00
2019-05-17T09:44:20.551Z,6020.00
2019-05-17T09:45:20.114Z,6052.00
2019-05-17T09:46:19.640Z,6104.00
2019-05-17T09:47:20.459Z,6164.00
2019-05-17T09:48:19.610Z,6192.00
2019-05-17T09:49:19.284Z,6204.00
2019-05-17T09:50:19.982Z,6192.00
2019-05-17T09:51:19.616Z,6148.00
2019-05-17T09:52:20.006Z,6064.00
2019-05-17T09:53:20.186Z,5956.00
2019-05-17T09:54:19.459Z,5816.00
2019-05-17T09:55:19.653Z,5640.00
2019-05-17T09:56:20.459Z,5428.00
2019-05-17T09:57:20.284Z,5184.00
2019-05-17T09:58:21.425Z,4968.00
2019-05-17T09:59:20.282Z,4756.00
2019-05-17T10:00:20.591Z,4584.00
2019-05-17T10:01:19.633Z,4460.00
2019-05-17T10:02:20.176Z,4356.00
2019-05-17T10:03:23.273Z,4276.00
2019-05-17T10:04:42.845Z,4156.00
2019-05-17T10:05:42.835Z,4052.00
2019-05-17T10:06:42.874Z,3920.00
2019-05-17T10:07:42.810Z,3752.00
2019-05-17T10:08:42.802Z,3544.00
2019-05-17T10:09:42.792Z,3312.00
2019-05-17T10:10:42.786Z,3100.00
2019-05-17T10:11:42.770Z,2888.00
2019-05-17T10:12:42.809Z,2688.00
2019-05-17T10:13:42.748Z,2516.00
2019-05-17T10:14:42.738Z,2344.00
2019-05-17T10:15:42.732Z,2172.00
2019-05-17T10:16:42.719Z,2016.00
2019-05-17T10:17:42.738Z,1860.00
2019-05-17T10:18:42.797Z,1712.00
2019-05-17T10:19:42.686Z,1584.00
2019-05-17T10:20:42.675Z,1480.00
2019-05-17T10:21:42.666Z,1380.00
2019-05-17T10:22:42.652Z,1292.00
2019-05-17T10:23:42.644Z,1220.00
2019-05-17T10:24:42.686Z,1152.00
2019-05-17T10:25:42.622Z,1080.00
2019-05-17T10:26:42.610Z,1016.00
2019-05-17T10:27:42.601Z,960.00
2019-05-17T10:28:42.591Z,912.00
2019-05-17T10:29:42.579Z,872.00
2019-05-17T10:30:42.667Z,832.00
2019-05-17T10:31:42.557Z,804.00
2019-05-17T10:32:42.546Z,784.00
2019-05-17T10:33:42.539Z,768.00
2019-05-17T10:34:42.526Z,768.00
2019-05-17T10:35:42.514Z,764.00
2019-05-17T10:36:42.557Z,772.00
2019-05-17T10:37:42.492Z,784.00
2019-05-17T10:38:42.484Z,800.00
2019-05-17T10:39:42.475Z,812.00
2019-05-17T10:40:42.463Z,808.00
2019-05-17T10:41:42.454Z,796.00
2019-05-17T10:42:42.489Z,772.00
2019-05-17T10:43:42.430Z,748.00
2019-05-17T10:44:47.419Z,732.00
2019-05-17T10:45:42.410Z,724.00
2019-05-17T10:46:42.396Z,716.00
2019-05-17T10:47:42.387Z,700.00
2019-05-17T10:48:42.427Z,688.00
2019-05-17T10:49:42.375Z,672.00
2019-05-17T10:50:42.354Z,656.00
2019-05-17T10:51:42.349Z,652.00
2019-05-17T10:52:42.334Z,648.00
2019-05-17T10:53:42.325Z,636.00
2019-05-17T10:54:42.414Z,628.00
2019-05-17T10:55:42.306Z,624.00
2019-05-17T10:56:42.295Z,624.00
2019-05-17T10:57:45.317Z,632.00
2019-05-17T10:58:42.270Z,640.00
2019-05-17T10:59:42.265Z,644.00
2019-05-17T11:00:42.303Z,656.00
2019-05-17T11:01:42.241Z,668.00
2019-05-17T11:02:42.229Z,672.00
2019-05-17T11:03:42.228Z,684.00
2019-05-17T11:04:42.211Z,692.00
2019-05-17T11:05:42.202Z,700.00
2019-05-17T11:06:42.239Z,700.00
2019-05-17T11:07:42.180Z,700.00
2019-05-17T11:08:42.166Z,700.00
2019-05-17T11:09:42.159Z,700.00
2019-05-17T11:10:42.146Z,696.00
2019-05-17T11:11:42.138Z,696.00
2019-05-17T11:12:42.173Z,688.00
2019-05-17T11:13:42.116Z,684.00
2019-05-17T11:14:50.770Z,680.00
2019-05-17T11:15:43.193Z,680.00
2019-05-17T11:16:42.087Z,676.00
2019-05-17T11:17:42.091Z,676.00
2019-05-17T11:18:42.113Z,672.00
2019-05-17T11:19:42.058Z,668.00
2019-05-17T11:20:42.043Z,668.00
2019-05-17T11:21:42.035Z,664.00
2019-05-17T11:22:42.019Z,656.00
2019-05-17T11:23:42.009Z,648.00
2019-05-17T11:24:42.049Z,636.00
2019-05-17T11:25:45.839Z,628.00
2019-05-17T11:26:41.981Z,624.00
2019-05-17T11:27:41.966Z,624.00
2019-05-17T11:28:41.958Z,632.00
2019-05-17T11:29:41.947Z,648.00
2019-05-17T11:30:41.987Z,664.00
2019-05-17T11:31:41.923Z,684.00
2019-05-17T11:32:41.945Z,700.00
2019-05-17T11:33:41.907Z,724.00
2019-05-17T11:34:41.900Z,760.00
2019-05-17T11:35:41.889Z,800.00
2019-05-17T11:36:41.924Z,840.00
2019-05-17T11:37:41.862Z,872.00
2019-05-17T11:38:41.855Z,896.00
2019-05-17T11:39:41.841Z,920.00
2019-05-17T11:40:41.830Z,940.00
2019-05-17T11:41:41.818Z,956.00
2019-05-17T11:42:41.859Z,972.00
2019-05-17T11:43:41.801Z,988.00
2019-05-17T11:44:41.788Z,1004.00
2019-05-17T11:45:41.777Z,1024.00
2019-05-17T11:46:41.767Z,1040.00
2019-05-17T11:47:41.755Z,1060.00
2019-05-17T11:48:41.797Z,1080.00
2019-05-17T11:49:41.736Z,1100.00
2019-05-17T11:50:41.724Z,1116.00
2019-05-17T11:51:41.711Z,1128.00
2019-05-17T11:52:41.700Z,1140.00
2019-05-17T11:53:41.691Z,1152.00
2019-05-17T11:54:41.730Z,1164.00
2019-05-17T11:55:41.674Z,1172.00
2019-05-17T11:56:41.663Z,1180.00
2019-05-17T11:57:41.651Z,1188.00
2019-05-17T11:58:41.649Z,1192.00
2019-05-17T11:59:41.978Z,1184.00
2019-05-17T12:00:41.617Z,1168.00
2019-05-17T12:01:41.605Z,1140.00
2019-05-17T12:02:41.598Z,1116.00
2019-05-17T12:03:41.587Z,1096.00
2019-05-17T12:04:41.580Z,1080.00
2019-05-17T12:05:41.661Z,1064.00
2019-05-17T12:06:41.552Z,1052.00
2019-05-17T12:07:41.543Z,1044.00
2019-05-17T12:08:41.534Z,1048.00